createdAt,value
2019-01-09T00:01:32.098Z,99140.38
2019-01-09T00:03:59.964Z,99135.84
2019-01-09T00:06:27.739Z,99142.94
2019-01-09T00:08:55.824Z,99140.05
2019-01-09T00:11:23.795Z,99149.58
2019-01-09T00:13:51.763Z,99141.66
2019-01-09T00:16:20.014Z,99143.25
2019-01-09T00:18:48.066Z,99147.83
2019-01-09T00:21:16.184Z,99151.74
2019-01-09T00:23:44.022Z,99148.45
2019-01-09T00:26:11.915Z,99150.70
2019-01-09T00:28:39.656Z,99142.30
2019-01-09T00:31:07.520Z,99161.02
2019-01-09T00:33:35.512Z,99156.44
2019-01-09T00:36:03.654Z,99150.16
2019-01-09T00:38:31.505Z,99153.78
2019-01-09T00:40:59.523Z,99154.33
2019-01-09T00:43:27.420Z,99152.25
2019-01-09T00:45:55.399Z,99146.13
2019-01-09T00:48:23.494Z,99157.16
2019-01-09T00:50:51.303Z,99170.13
2019-01-09T00:53:19.155Z,99165.01
2019-01-09T00:55:46.903Z,99163.10
2019-01-09T00:58:14.806Z,99162.72
2019-01-09T01:00:42.913Z,99160.44
2019-01-09T01:04:04.721Z,99165.34
2019-01-09T01:07:25.890Z,99172.66
2019-01-09T01:10:52.351Z,99168.17
2019-01-09T01:14:35.395Z,99168.69
2019-01-09T01:17:45.477Z,99172.05
2019-01-09T01:20:57.917Z,99171.13
2019-01-09T01:24:26.044Z,99184.66
2019-01-09T01:27:49.077Z,99184.22
2019-01-09T01:31:24.363Z,99179.92
2019-01-09T01:34:06.826Z,99190.02
2019-01-09T01:37:34.227Z,99175.91
2019-01-09T01:40:53.610Z,99192.53
2019-01-09T01:43:57.042Z,99190.37
2019-01-09T01:47:42.639Z,99194.09
2019-01-09T01:51:20.654Z,99193.46
2019-01-09T01:54:58.937Z,99202.88
2019-01-09T01:58:45.832Z,99207.30
2019-01-09T02:02:01.386Z,99209.63
2019-01-09T02:05:05.172Z,99204.31
2019-01-09T02:08:42.960Z,99208.53
2019-01-09T02:11:59.702Z,99216.91
2019-01-09T02:15:22.388Z,99215.18
2019-01-09T02:18:21.768Z,99222.00
2019-01-09T02:21:18.786Z,99222.59
2019-01-09T02:25:00.184Z,99221.69
2019-01-09T02:27:59.706Z,99228.73
2019-01-09T02:31:17.379Z,99228.89
2019-01-09T02:33:45.244Z,99217.66
2019-01-09T02:36:13.821Z,99224.07
2019-01-09T02:38:41.660Z,99228.70
2019-01-09T02:41:09.411Z,99234.21
2019-01-09T02:43:37.333Z,99228.02
2019-01-09T02:46:05.066Z,99219.73
2019-01-09T02:48:32.997Z,99225.59
2019-01-09T02:51:00.744Z,99228.95
2019-01-09T02:53:28.689Z,99231.77
2019-01-09T02:55:56.414Z,99236.41
2019-01-09T02:58:24.373Z,99230.39
2019-01-09T03:00:52.074Z,99229.50
2019-01-09T03:03:19.993Z,99224.04
2019-01-09T03:05:47.753Z,99223.30
2019-01-09T03:08:15.787Z,99230.04
2019-01-09T03:10:43.567Z,99226.39
2019-01-09T03:13:11.440Z,99226.45
2019-01-09T03:15:39.211Z,99231.33
2019-01-09T03:18:07.101Z,99229.05
2019-01-09T03:20:34.854Z,99232.90
2019-01-09T03:23:02.553Z,99233.98
2019-01-09T03:25:31.737Z,99234.33
2019-01-09T03:27:59.623Z,99229.75
2019-01-09T03:30:27.506Z,99229.94
2019-01-09T03:32:55.243Z,99237.77
2019-01-09T03:35:23.009Z,99226.01
2019-01-09T03:37:50.765Z,99235.31
2019-01-09T03:40:18.659Z,99240.03
2019-01-09T03:42:46.389Z,99237.23
2019-01-09T03:45:14.264Z,99244.82
2019-01-09T03:47:41.994Z,99238.31
2019-01-09T03:50:09.714Z,99234.77
2019-01-09T03:52:37.443Z,99234.08
2019-01-09T03:55:05.292Z,99237.38
2019-01-09T03:57:33.030Z,99232.06
2019-01-09T04:00:00.993Z,99241.77
2019-01-09T04:02:28.813Z,99249.50
2019-01-09T04:04:56.541Z,99243.33
2019-01-09T04:07:24.300Z,99243.48
2019-01-09T04:09:52.026Z,99249.78
2019-01-09T04:12:19.774Z,99250.72
2019-01-09T04:14:47.646Z,99245.70
2019-01-09T04:17:15.422Z,99258.11
2019-01-09T04:19:43.165Z,99251.05
2019-01-09T04:22:10.928Z,99257.36
2019-01-09T04:24:38.865Z,99252.29
2019-01-09T04:27:06.596Z,99263.06
2019-01-09T04:29:34.551Z,99266.77
2019-01-09T04:32:02.288Z,99261.20
2019-01-09T04:34:30.048Z,99265.45
2019-01-09T04:36:57.808Z,99265.33
2019-01-09T04:39:25.766Z,99262.09
2019-01-09T04:41:53.524Z,99261.48
2019-01-09T04:44:21.435Z,99264.39
2019-01-09T04:46:49.747Z,99266.16
2019-01-09T04:49:17.496Z,99262.42
2019-01-09T04:51:45.425Z,99263.95
2019-01-09T04:54:13.348Z,99273.70
2019-01-09T04:56:41.143Z,99274.77
2019-01-09T04:59:09.049Z,99272.55
2019-01-09T05:01:37.049Z,99281.52
2019-01-09T05:04:04.780Z,99275.32
2019-01-09T05:06:32.512Z,99275.08
2019-01-09T05:09:00.251Z,99268.18
2019-01-09T05:11:28.195Z,99275.27
2019-01-09T05:13:55.918Z,99273.82
2019-01-09T05:16:23.831Z,99276.55
2019-01-09T05:18:51.564Z,99274.00
2019-01-09T05:21:19.329Z,99283.57
2019-01-09T05:23:47.126Z,99291.03
2019-01-09T05:26:15.041Z,99300.75
2019-01-09T05:28:42.809Z,99298.62
2019-01-09T05:31:10.685Z,99308.53
2019-01-09T05:33:38.411Z,99313.20
2019-01-09T05:36:06.186Z,99310.19
2019-01-09T05:38:33.962Z,99310.64
2019-01-09T05:41:01.933Z,99310.25
2019-01-09T05:43:29.674Z,99324.85
2019-01-09T05:45:57.598Z,99334.50
2019-01-09T05:48:25.391Z,99330.97
2019-01-09T05:50:53.154Z,99330.13
2019-01-09T05:53:20.950Z,99329.98
2019-01-09T05:55:48.906Z,99332.37
2019-01-09T05:58:16.639Z,99340.44
2019-01-09T06:00:44.552Z,99333.39
2019-01-09T06:03:12.319Z,99338.70
2019-01-09T06:05:40.080Z,99344.25
2019-01-09T06:08:07.924Z,99340.27
2019-01-09T06:10:35.648Z,99346.86
2019-01-09T06:13:03.410Z,99351.30
2019-01-09T06:15:31.314Z,99358.55
2019-01-09T06:17:59.258Z,99346.67
2019-01-09T06:20:26.994Z,99352.79
2019-01-09T06:22:54.749Z,99358.86
2019-01-09T06:25:22.478Z,99354.69
2019-01-09T06:27:50.230Z,99359.20
2019-01-09T06:30:17.977Z,99359.28
2019-01-09T06:32:45.819Z,99369.37
2019-01-09T06:35:13.625Z,99362.54
2019-01-09T06:37:41.577Z,99359.20
2019-01-09T06:40:09.336Z,99367.55
2019-01-09T06:42:37.074Z,99360.52
2019-01-09T06:45:05.179Z,99375.78
2019-01-09T06:47:33.140Z,99376.70
2019-01-09T06:50:02.149Z,99383.79
2019-01-09T06:52:30.105Z,99373.31
2019-01-09T06:54:57.920Z,99380.68
2019-01-09T06:57:25.842Z,99383.60
2019-01-09T06:59:53.598Z,99388.95
2019-01-09T07:02:21.533Z,99388.69
2019-01-09T07:04:49.255Z,99390.66
2019-01-09T07:07:16.999Z,99398.10
2019-01-09T07:09:44.746Z,99393.95
2019-01-09T07:12:12.465Z,99396.70
2019-01-09T07:14:40.225Z,99402.80
2019-01-09T07:17:08.131Z,99409.14
2019-01-09T07:19:35.917Z,99404.36
2019-01-09T07:22:03.695Z,99403.80
2019-01-09T07:24:32.863Z,99408.84
2019-01-09T07:27:00.848Z,99412.17
2019-01-09T07:29:28.595Z,99415.17
2019-01-09T07:31:56.375Z,99414.72
2019-01-09T07:34:24.107Z,99420.90
2019-01-09T07:36:51.987Z,99428.27
2019-01-09T07:39:19.735Z,99411.64
2019-01-09T07:41:47.676Z,99424.92
2019-01-09T07:44:15.677Z,99426.79
2019-01-09T07:46:43.476Z,99432.17
2019-01-09T07:49:11.396Z,99439.88
2019-01-09T07:51:39.299Z,99445.92
2019-01-09T07:54:07.232Z,99437.50
2019-01-09T07:56:35.018Z,99437.00
2019-01-09T07:59:02.844Z,99440.20
2019-01-09T08:01:31.996Z,99435.94
2019-01-09T08:04:00.162Z,99431.20
2019-01-09T08:06:27.916Z,99445.52
2019-01-09T08:08:55.855Z,99449.23
2019-01-09T08:11:25.836Z,99450.53
2019-01-09T08:13:53.742Z,99449.92
2019-01-09T08:16:21.542Z,99444.00
2019-01-09T08:18:49.432Z,99456.75
2019-01-09T08:21:17.199Z,99464.38
2019-01-09T08:23:46.772Z,99463.93
2019-01-09T08:26:14.503Z,99465.10
2019-01-09T08:28:42.470Z,99472.70
2019-01-09T08:31:10.229Z,99471.70
2019-01-09T08:33:38.008Z,99479.69
2019-01-09T08:36:05.764Z,99480.37
2019-01-09T08:38:34.874Z,99477.50
2019-01-09T08:41:02.860Z,99478.50
2019-01-09T08:43:33.204Z,99495.05
2019-01-09T08:46:01.002Z,99490.23
2019-01-09T08:48:28.965Z,99497.59
2019-01-09T08:50:56.791Z,99493.80
2019-01-09T08:53:24.495Z,99500.06
2019-01-09T08:55:52.263Z,99506.66
2019-01-09T08:58:19.997Z,99498.55
2019-01-09T09:00:47.766Z,99502.88
2019-01-09T09:03:15.654Z,99504.32
2019-01-09T09:05:43.491Z,99499.90
2019-01-09T09:08:12.492Z,99517.25
2019-01-09T09:10:40.393Z,99515.87
2019-01-09T09:13:12.108Z,99519.52
2019-01-09T09:15:39.900Z,99517.30
2019-01-09T09:18:07.782Z,99526.47
2019-01-09T09:20:35.537Z,99530.67
2019-01-09T09:23:03.292Z,99527.69
2019-01-09T09:25:31.041Z,99535.73
2019-01-09T09:27:58.782Z,99533.36
2019-01-09T09:30:26.737Z,99528.80
2019-01-09T09:32:54.634Z,99537.46
2019-01-09T09:35:22.415Z,99536.36
2019-01-09T09:37:50.127Z,99542.93
2019-01-09T09:40:20.215Z,99538.25
2019-01-09T09:42:47.970Z,99543.45
2019-01-09T09:45:15.916Z,99551.33
2019-01-09T09:47:43.672Z,99548.22
2019-01-09T09:50:13.346Z,99557.72
2019-01-09T09:52:41.096Z,99559.77
2019-01-09T09:55:13.023Z,99565.97
2019-01-09T09:57:38.772Z,99555.81
2019-01-09T10:00:11.790Z,99564.25
2019-01-09T10:02:39.554Z,99568.41
2019-01-09T10:05:07.345Z,99567.20
2019-01-09T10:07:35.110Z,99573.16
2019-01-09T10:10:03.390Z,99574.97
2019-01-09T10:12:31.144Z,99570.18
2019-01-09T10:14:58.874Z,99582.47
2019-01-09T10:17:26.662Z,99574.20
2019-01-09T10:19:54.390Z,99573.38
2019-01-09T10:22:22.218Z,99579.30
2019-01-09T10:24:49.942Z,99575.61
2019-01-09T10:27:17.714Z,99579.88
2019-01-09T10:29:45.451Z,99575.45
2019-01-09T10:32:13.256Z,99583.17
2019-01-09T10:34:41.063Z,99586.30
2019-01-09T10:37:08.840Z,99590.67
2019-01-09T10:39:36.608Z,99580.64
2019-01-09T10:42:04.434Z,99588.79
2019-01-09T10:44:32.208Z,99584.47
2019-01-09T10:47:00.043Z,99592.94
2019-01-09T10:49:27.777Z,99584.58
2019-01-09T10:51:55.597Z,99584.99
2019-01-09T10:54:23.280Z,99591.63
2019-01-09T10:56:51.071Z,99592.28
2019-01-09T10:59:18.707Z,99598.61
2019-01-09T11:01:46.499Z,99591.46
2019-01-09T11:04:14.299Z,99584.77
2019-01-09T11:06:42.133Z,99585.16
2019-01-09T11:09:09.888Z,99584.23
2019-01-09T11:11:37.627Z,99580.06
2019-01-09T11:14:05.489Z,99581.69
2019-01-09T11:16:33.219Z,99588.69
2019-01-09T11:19:01.015Z,99591.16
2019-01-09T11:21:28.774Z,99589.33
2019-01-09T11:23:56.550Z,99587.08
2019-01-09T11:26:24.268Z,99583.44
2019-01-09T11:28:52.045Z,99590.61
2019-01-09T11:31:19.777Z,99594.12
2019-01-09T11:33:47.546Z,99581.80
2019-01-09T11:36:15.261Z,99593.81
2019-01-09T11:38:43.026Z,99586.86
2019-01-09T11:41:10.772Z,99598.11
2019-01-09T11:43:38.559Z,99593.34
2019-01-09T11:46:06.833Z,99601.30
2019-01-09T11:48:34.603Z,99589.67
2019-01-09T11:51:02.349Z,99593.23
2019-01-09T11:53:30.150Z,99612.55
2019-01-09T11:55:57.912Z,99599.14
2019-01-09T11:58:25.662Z,99601.33
2019-01-09T12:00:53.384Z,99600.47
2019-01-09T12:03:21.171Z,99603.98
2019-01-09T12:05:48.969Z,99605.78
2019-01-09T12:08:16.770Z,99618.52
2019-01-09T12:10:44.525Z,99616.83
2019-01-09T12:13:12.339Z,99621.18
2019-01-09T12:15:40.111Z,99617.02
2019-01-09T12:18:07.934Z,99629.93
2019-01-09T12:20:35.703Z,99628.55
2019-01-09T12:23:03.412Z,99629.44
2019-01-09T12:25:31.186Z,99631.55
2019-01-09T12:27:59.037Z,99631.41
2019-01-09T12:30:29.843Z,99640.61
2019-01-09T12:32:57.638Z,99645.24
2019-01-09T12:35:25.612Z,99641.67
2019-01-09T12:37:53.350Z,99652.46
2019-01-09T12:40:21.086Z,99651.47
2019-01-09T12:42:48.922Z,99654.66
2019-01-09T12:45:16.711Z,99658.05
2019-01-09T12:47:44.473Z,99657.66
2019-01-09T12:50:16.505Z,99667.97
2019-01-09T12:52:44.236Z,99672.61
2019-01-09T12:55:12.050Z,99674.66
2019-01-09T12:57:39.775Z,99679.63
2019-01-09T13:00:14.565Z,99682.98
2019-01-09T13:02:42.338Z,99690.54
2019-01-09T13:05:10.711Z,99682.45
2019-01-09T13:07:38.451Z,99688.78
2019-01-09T13:10:07.330Z,99696.85
2019-01-09T13:12:35.073Z,99699.82
2019-01-09T13:15:03.278Z,99707.48
2019-01-09T13:17:31.063Z,99707.95
2019-01-09T13:19:59.047Z,99703.31
2019-01-09T13:22:26.829Z,99712.15
2019-01-09T13:24:54.639Z,99711.46
2019-01-09T13:27:22.404Z,99720.67
2019-01-09T13:29:50.165Z,99714.55
2019-01-09T13:32:17.896Z,99715.09
2019-01-09T13:34:45.749Z,99725.89
2019-01-09T13:37:13.525Z,99729.50
2019-01-09T13:39:41.284Z,99739.77
2019-01-09T13:42:09.060Z,99733.14
2019-01-09T13:44:36.817Z,99747.64
2019-01-09T13:47:04.825Z,99743.65
2019-01-09T13:49:32.608Z,99755.66
2019-01-09T13:52:00.367Z,99745.72
2019-01-09T13:54:28.122Z,99753.86
2019-01-09T13:56:55.910Z,99758.02
2019-01-09T13:59:23.660Z,99759.52
2019-01-09T14:01:51.444Z,99761.70
2019-01-09T14:04:19.200Z,99773.03
2019-01-09T14:06:48.311Z,99769.67
2019-01-09T14:09:16.073Z,99769.70
2019-01-09T14:11:44.066Z,99775.02
2019-01-09T14:14:11.883Z,99780.42
2019-01-09T14:16:39.691Z,99788.61
2019-01-09T14:19:07.452Z,99790.07
2019-01-09T14:21:35.218Z,99789.53
2019-01-09T14:24:03.322Z,99789.98
2019-01-09T14:26:31.188Z,99796.98
2019-01-09T14:28:58.981Z,99803.43
2019-01-09T14:31:26.832Z,99811.53
2019-01-09T14:33:54.601Z,99807.02
2019-01-09T14:36:22.367Z,99810.06
2019-01-09T14:38:50.184Z,99815.83
2019-01-09T14:41:18.054Z,99813.17
2019-01-09T14:43:45.854Z,99824.63
2019-01-09T14:46:13.639Z,99819.36
2019-01-09T14:48:41.411Z,99826.31
2019-01-09T14:51:09.176Z,99834.41
2019-01-09T14:53:36.963Z,99841.54
2019-01-09T14:56:04.934Z,99841.39
2019-01-09T14:58:33.278Z,99841.54
2019-01-09T15:01:01.084Z,99850.38
2019-01-09T15:03:28.824Z,99852.02
2019-01-09T15:05:56.641Z,99850.69
2019-01-09T15:08:24.344Z,99852.50
2019-01-09T15:10:52.119Z,99867.25
2019-01-09T15:13:19.948Z,99865.08
2019-01-09T15:15:47.779Z,99872.07
2019-01-09T15:18:15.535Z,99874.90
2019-01-09T15:20:43.393Z,99871.72
2019-01-09T15:23:11.165Z,99878.36
2019-01-09T15:25:41.198Z,99875.21
2019-01-09T15:28:08.987Z,99885.14
2019-01-09T15:30:36.741Z,99888.77
2019-01-09T15:33:04.641Z,99887.30
2019-01-09T15:35:32.404Z,99888.23
2019-01-09T15:38:00.178Z,99882.30
2019-01-09T15:40:29.757Z,99897.78
2019-01-09T15:42:57.532Z,99897.08
2019-01-09T15:45:25.382Z,99899.34
2019-01-09T15:47:53.367Z,99903.41
2019-01-09T15:50:21.949Z,99903.90
2019-01-09T15:52:49.887Z,99908.69
2019-01-09T15:55:17.991Z,99912.00
2019-01-09T15:57:45.879Z,99919.98
2019-01-09T16:00:20.775Z,99919.27
2019-01-09T16:02:48.551Z,99922.28
2019-01-09T16:05:16.289Z,99923.74
2019-01-09T16:07:44.209Z,99931.41
2019-01-09T16:10:14.766Z,99933.43
2019-01-09T16:12:42.579Z,99925.91
2019-01-09T16:15:12.086Z,99939.86
2019-01-09T16:17:39.848Z,99941.05
2019-01-09T16:20:16.801Z,99943.36
2019-01-09T16:22:38.921Z,99945.70
2019-01-09T16:25:09.008Z,99948.88
2019-01-09T16:27:36.736Z,99947.83
2019-01-09T16:30:21.438Z,99952.34
2019-01-09T16:32:49.298Z,99953.17
2019-01-09T16:35:17.102Z,99959.81
2019-01-09T16:37:44.976Z,99963.13
2019-01-09T16:40:13.118Z,99957.65
2019-01-09T16:42:40.870Z,99968.65
2019-01-09T16:45:09.623Z,99971.27
2019-01-09T16:47:37.369Z,99964.49
2019-01-09T16:50:07.828Z,99972.75
2019-01-09T16:52:35.674Z,99969.28
2019-01-09T16:55:04.168Z,99973.09
2019-01-09T16:57:31.927Z,99972.27
2019-01-09T17:00:00.034Z,99979.73
2019-01-09T17:02:28.208Z,99988.72
2019-01-09T17:04:56.014Z,99983.41
2019-01-09T17:07:23.932Z,99989.34
2019-01-09T17:09:51.736Z,99978.58
2019-01-09T17:12:20.059Z,99993.83
2019-01-09T17:14:47.847Z,99996.66
2019-01-09T17:17:15.595Z,99998.88
2019-01-09T17:19:43.421Z,100000.69
2019-01-09T17:22:11.179Z,100001.99
2019-01-09T17:24:38.951Z,99999.02
2019-01-09T17:27:06.791Z,100008.64
2019-01-09T17:29:34.597Z,100007.50
2019-01-09T17:32:02.361Z,100010.13
2019-01-09T17:34:30.121Z,100019.27
2019-01-09T17:36:58.229Z,100026.08
2019-01-09T17:39:30.443Z,100022.92
2019-01-09T17:41:58.267Z,100036.03
2019-01-09T17:44:27.791Z,100041.03
2019-01-09T17:46:55.583Z,100040.20
2019-01-09T17:49:23.318Z,100045.52
2019-01-09T17:51:51.117Z,100045.00
2019-01-09T17:54:18.891Z,100047.16
2019-01-09T17:56:46.752Z,100045.00
2019-01-09T17:59:15.041Z,100057.13
2019-01-09T18:01:42.823Z,100057.28
2019-01-09T18:04:11.163Z,100053.63
2019-01-09T18:06:38.981Z,100061.27
2019-01-09T18:09:08.498Z,100058.45
2019-01-09T18:11:36.454Z,100068.91
2019-01-09T18:14:07.581Z,100060.75
2019-01-09T18:16:35.342Z,100064.77
2019-01-09T18:19:03.215Z,100066.58
2019-01-09T18:21:31.028Z,100071.55
2019-01-09T18:23:58.774Z,100078.37
2019-01-09T18:26:26.566Z,100079.86
2019-01-09T18:28:54.420Z,100087.64
2019-01-09T18:32:14.862Z,100085.98
2019-01-09T18:34:57.452Z,100088.98
2019-01-09T18:38:38.243Z,100091.64
2019-01-09T18:41:45.637Z,100088.98
2019-01-09T18:44:37.197Z,100101.76
2019-01-09T18:47:40.466Z,100115.69
2019-01-09T18:50:53.556Z,100114.36
2019-01-09T18:53:52.318Z,100121.00
2019-01-09T18:56:20.119Z,100123.16
2019-01-09T18:58:53.027Z,100125.97
2019-01-09T19:01:20.797Z,100130.61
2019-01-09T19:03:48.623Z,100138.59
2019-01-09T19:06:16.386Z,100137.11
2019-01-09T19:08:44.220Z,100140.56
2019-01-09T19:11:11.997Z,100153.19
2019-01-09T19:13:39.803Z,100160.32
2019-01-09T19:16:07.889Z,100152.03
2019-01-09T19:18:35.661Z,100160.30
2019-01-09T19:21:04.766Z,100160.81
2019-01-09T19:23:32.569Z,100164.80
2019-01-09T19:26:00.320Z,100172.28
2019-01-09T19:28:28.882Z,100167.80
2019-01-09T19:30:59.421Z,100168.45
2019-01-09T19:33:27.215Z,100181.06
2019-01-09T19:35:55.035Z,100188.83
2019-01-09T19:38:22.812Z,100191.82
2019-01-09T19:40:50.665Z,100188.83
2019-01-09T19:43:18.420Z,100190.84
2019-01-09T19:45:46.249Z,100198.16
2019-01-09T19:48:14.026Z,100201.16
2019-01-09T19:50:42.678Z,100215.56
2019-01-09T19:53:10.607Z,100224.85
2019-01-09T19:55:38.390Z,100216.87
2019-01-09T19:58:06.716Z,100220.03
2019-01-09T20:00:34.626Z,100221.55
2019-01-09T20:03:02.604Z,100221.22
2019-01-09T20:05:30.516Z,100223.73
2019-01-09T20:07:58.258Z,100225.69
2019-01-09T20:10:26.845Z,100235.83
2019-01-09T20:12:54.845Z,100236.16
2019-01-09T20:15:22.713Z,100245.45
2019-01-09T20:17:50.883Z,100238.83
2019-01-09T20:20:19.588Z,100242.62
2019-01-09T20:22:49.252Z,100249.25
2019-01-09T20:25:17.035Z,100247.92
2019-01-09T20:27:44.932Z,100252.40
2019-01-09T20:30:23.095Z,100256.24
2019-01-09T20:32:51.134Z,100259.22
2019-01-09T20:35:19.010Z,100260.72
2019-01-09T20:37:46.947Z,100269.52
2019-01-09T20:40:16.072Z,100273.34
2019-01-09T20:42:44.055Z,100281.32
2019-01-09T20:45:12.912Z,100280.84
2019-01-09T20:47:40.956Z,100285.47
2019-01-09T20:50:19.637Z,100280.00
2019-01-09T20:52:47.395Z,100287.15
2019-01-09T20:55:15.477Z,100292.92
2019-01-09T20:57:43.681Z,100290.83
2019-01-09T21:00:17.379Z,100297.95
2019-01-09T21:02:45.125Z,100300.98
2019-01-09T21:05:18.362Z,100303.31
2019-01-09T21:07:46.339Z,100304.59
2019-01-09T21:10:14.570Z,100317.55
2019-01-09T21:12:42.658Z,100313.70
2019-01-09T21:15:12.130Z,100322.37
2019-01-09T21:17:39.982Z,100326.38
2019-01-09T21:20:12.151Z,100324.02
2019-01-09T21:22:39.970Z,100331.34
2019-01-09T21:25:07.929Z,100323.84
2019-01-09T21:27:42.063Z,100329.34
2019-01-09T21:30:08.041Z,100330.50
2019-01-09T21:32:35.815Z,100333.18
2019-01-09T21:35:05.072Z,100334.34
2019-01-09T21:37:32.819Z,100336.67
2019-01-09T21:40:00.602Z,100339.66
2019-01-09T21:42:28.423Z,100344.48
2019-01-09T21:44:56.188Z,100343.02
2019-01-09T21:47:24.032Z,100345.02
2019-01-09T21:49:51.807Z,100347.00
2019-01-09T21:52:19.615Z,100356.11
2019-01-09T21:54:47.355Z,100353.31
2019-01-09T21:57:15.140Z,100360.81
2019-01-09T21:59:42.919Z,100363.96
2019-01-09T22:02:10.677Z,100365.94
2019-01-09T22:04:38.446Z,100368.77
2019-01-09T22:07:06.215Z,100371.39
2019-01-09T22:09:33.968Z,100379.23
2019-01-09T22:12:02.576Z,100386.73
2019-01-09T22:14:30.558Z,100383.91
2019-01-09T22:16:58.316Z,100383.89
2019-01-09T22:19:26.107Z,100390.05
2019-01-09T22:21:53.922Z,100385.89
2019-01-09T22:24:21.715Z,100395.35
2019-01-09T22:26:49.506Z,100398.17
2019-01-09T22:29:17.272Z,100395.69
2019-01-09T22:31:45.119Z,100406.83
2019-01-09T22:34:13.066Z,100403.69
2019-01-09T22:36:40.851Z,100405.34
2019-01-09T22:39:08.920Z,100400.84
2019-01-09T22:41:36.684Z,100403.16
2019-01-09T22:44:05.564Z,100410.48
2019-01-09T22:46:33.556Z,100403.48
2019-01-09T22:49:01.323Z,100407.29
2019-01-09T22:51:29.630Z,100405.31
2019-01-09T22:53:57.391Z,100409.48
2019-01-09T22:56:25.312Z,100404.50
2019-01-09T22:58:53.097Z,100418.11
2019-01-09T23:01:24.583Z,100418.78
2019-01-09T23:03:54.000Z,100413.47
2019-01-09T23:06:21.775Z,100416.80
2019-01-09T23:08:49.541Z,100422.47
2019-01-09T23:11:17.413Z,100426.16
2019-01-09T23:13:45.317Z,100428.78
2019-01-09T23:16:13.167Z,100425.48
2019-01-09T23:18:41.143Z,100437.44
2019-01-09T23:21:08.863Z,100439.91
2019-01-09T23:23:36.739Z,100443.23
2019-01-09T23:26:04.941Z,100436.92
2019-01-09T23:28:32.958Z,100439.73
2019-01-09T23:31:00.813Z,100451.22
2019-01-09T23:33:28.679Z,100448.58
2019-01-09T23:35:56.415Z,100456.07
2019-01-09T23:38:24.167Z,100447.44
2019-01-09T23:40:52.182Z,100455.77
2019-01-09T23:43:19.953Z,100459.72
2019-01-09T23:45:48.011Z,100461.77
2019-01-09T23:48:15.796Z,100462.58
2019-01-09T23:50:43.631Z,100467.41
2019-01-09T23:53:11.415Z,100470.22
2019-01-09T23:55:39.327Z,100475.67
2019-01-09T23:58:07.073Z,100473.37
